Time;durP1;ratioP1;P1;durP2;ratioP2;P2;SDS_P1;SDS_P2;PMS_P1;PMS_P2;Temp;Humidity;BMP_temperature;BMP_pressure;BME280_temperature;BME280_humidity;BME280_pressure;Samples;Min_cycle;Max_cycle;Signal;HPM_P1;HPM_P2
2023/04/09 00:02:14;;;;;;;179.98;70.05;;;3.40;99.90;;;;;;5026142;28;20041;-71
2023/04/09 00:04:41;;;;;;;199.82;73.97;;;3.50;99.90;;;;;;5038751;28;20057;-72
2023/04/09 00:07:08;;;;;;;198.68;73.15;;;3.50;99.90;;;;;;5021993;28;20105;-72
2023/04/09 00:09:34;;;;;;;193.48;70.55;;;3.30;99.90;;;;;;5015785;28;20096;-71
2023/04/09 00:12:02;;;;;;;223.98;75.25;;;3.40;99.90;;;;;;5016698;28;20036;-72
2023/04/09 00:14:29;;;;;;;223.80;78.40;;;3.40;99.90;;;;;;5039414;28;20120;-71
2023/04/09 00:16:55;;;;;;;234.80;78.65;;;3.60;99.90;;;;;;5022651;28;20040;-72
2023/04/09 00:19:22;;;;;;;228.82;81.07;;;3.70;99.90;;;;;;5046094;28;20063;-71
2023/04/09 00:21:49;;;;;;;224.38;79.20;;;3.80;99.90;;;;;;5038063;28;20480;-71
2023/04/09 00:24:15;;;;;;;213.07;77.10;;;3.90;99.90;;;;;;5023742;28;20048;-72
2023/04/09 00:26:42;;;;;;;227.73;79.88;;;3.80;99.90;;;;;;5041636;28;20415;-72
2023/04/09 00:29:09;;;;;;;215.05;79.97;;;3.70;99.90;;;;;;5028710;28;20099;-72
2023/04/09 00:31:36;;;;;;;230.73;80.60;;;3.80;99.90;;;;;;5044740;28;20040;-72
2023/04/09 00:34:02;;;;;;;208.00;77.90;;;3.80;99.90;;;;;;5007483;28;20128;-72
2023/04/09 00:36:29;;;;;;;215.98;79.00;;;3.70;99.90;;;;;;5017783;28;20048;-71
2023/04/09 00:38:57;;;;;;;229.98;84.57;;;3.70;99.90;;;;;;5024636;28;20052;-71
2023/04/09 00:41:24;;;;;;;237.93;81.70;;;3.70;99.90;;;;;;5027295;28;20045;-72
2023/04/09 00:43:51;;;;;;;228.07;80.15;;;3.80;99.90;;;;;;5022093;28;20063;-71
2023/04/09 00:46:17;;;;;;;253.77;86.43;;;3.70;99.90;;;;;;5034718;28;20041;-71
2023/04/09 00:48:44;;;;;;;232.88;82.57;;;3.60;99.90;;;;;;4993282;28;20037;-72
2023/04/09 00:51:11;;;;;;;257.17;85.82;;;3.60;99.90;;;;;;5011282;28;20136;-72
2023/04/09 00:53:38;;;;;;;221.20;78.70;;;3.50;99.90;;;;;;5010522;28;20128;-72
2023/04/09 00:56:05;;;;;;;200.13;75.63;;;3.30;99.90;;;;;;5033022;28;20049;-70
2023/04/09 00:58:32;;;;;;;218.80;78.68;;;3.10;99.90;;;;;;5019447;28;20051;-72
2023/04/09 01:00:59;;;;;;;229.45;81.97;;;3.00;99.90;;;;;;5023520;28;20479;-72
2023/04/09 01:03:25;;;;;;;228.32;83.88;;;2.90;99.90;;;;;;5043081;28;20134;-72
2023/04/09 01:06:16;;;;;;;234.90;83.63;;;2.90;99.90;;;;;;5027143;28;20061;-72
2023/04/09 01:09:19;;;;;;;239.00;80.20;;;2.80;99.90;;;;;;5019454;28;20041;-72
2023/04/09 01:12:09;;;;;;;208.07;76.20;;;2.70;99.90;;;;;;5001496;28;20037;-71
2023/04/09 01:15:01;;;;;;;210.55;74.68;;;2.50;99.90;;;;;;5030323;28;20044;-72
2023/04/09 01:17:43;;;;;;;203.57;76.60;;;2.30;99.90;;;;;;5015414;28;20602;-72
2023/04/09 01:20:18;;;;;;;232.50;82.28;;;2.50;99.90;;;;;;5016574;28;20176;-70
2023/04/09 01:23:13;;;;;;;238.25;83.30;;;2.40;99.90;;;;;;5029457;28;20131;-72
2023/04/09 01:26:03;;;;;;;222.85;78.90;;;2.30;99.90;;;;;;5029822;28;20200;-72
2023/04/09 01:28:46;;;;;;;225.25;75.22;;;2.20;99.90;;;;;;5013676;28;20042;-72
2023/04/09 01:31:16;;;;;;;233.50;82.93;;;2.10;99.90;;;;;;5017775;28;20407;-71
2023/04/09 01:33:44;;;;;;;257.58;88.22;;;2.10;99.90;;;;;;5017232;28;20128;-70
2023/04/09 01:36:13;;;;;;;284.92;91.75;;;2.40;99.90;;;;;;5042117;28;20045;-70
2023/04/09 01:38:41;;;;;;;268.60;88.70;;;2.20;99.90;;;;;;5021261;28;20048;-69
2023/04/09 01:41:16;;;;;;;260.02;81.38;;;2.20;99.90;;;;;;5036120;28;20073;-70
2023/04/09 01:43:44;;;;;;;248.57;82.15;;;2.20;99.90;;;;;;5021328;28;20111;-70
2023/04/09 01:46:11;;;;;;;274.52;83.35;;;2.30;99.90;;;;;;5044788;28;20053;-70
2023/04/09 01:48:39;;;;;;;263.30;85.13;;;2.30;99.90;;;;;;5024644;28;20060;-69
2023/04/09 01:51:05;;;;;;;297.13;90.28;;;2.40;99.90;;;;;;5022889;28;20044;-71
2023/04/09 01:53:32;;;;;;;283.77;88.70;;;2.30;99.90;;;;;;5019658;28;20469;-70
2023/04/09 01:56:00;;;;;;;285.60;93.35;;;2.30;99.90;;;;;;5021688;28;20036;-70
2023/04/09 01:58:27;;;;;;;301.75;96.53;;;2.30;99.90;;;;;;5019026;28;20496;-70
2023/04/09 02:01:00;;;;;;;273.95;88.97;;;2.10;99.90;;;;;;5041482;28;20036;-70
2023/04/09 02:03:46;;;;;;;276.90;88.95;;;2.00;99.90;;;;;;5003163;28;20519;-70
2023/04/09 02:06:21;;;;;;;264.60;91.57;;;1.90;99.90;;;;;;5021292;28;20887;-71
2023/04/09 02:08:51;;;;;;;266.00;91.40;;;1.90;99.90;;;;;;5022304;28;20049;-71
2023/04/09 02:11:20;;;;;;;250.32;87.85;;;1.90;99.90;;;;;;5020806;28;20102;-70
2023/04/09 02:13:50;;;;;;;261.58;88.03;;;1.80;99.90;;;;;;5037850;28;20212;-70
2023/04/09 02:16:18;;;;;;;259.65;89.93;;;1.80;99.90;;;;;;5038158;28;20092;-70
2023/04/09 02:18:45;;;;;;;241.50;84.15;;;1.90;99.90;;;;;;5044999;28;20275;-70
2023/04/09 02:21:12;;;;;;;244.73;90.07;;;1.80;99.90;;;;;;5042317;28;20045;-70
2023/04/09 02:23:39;;;;;;;260.10;89.20;;;1.80;99.90;;;;;;5037458;28;20041;-70
2023/04/09 02:26:06;;;;;;;233.90;83.57;;;1.70;99.90;;;;;;5022440;28;20037;-70
2023/04/09 02:28:33;;;;;;;254.63;86.53;;;1.50;99.90;;;;;;5025142;28;20036;-69
2023/04/09 02:31:00;;;;;;;265.10;93.30;;;1.40;99.90;;;;;;5023789;28;20249;-70
2023/04/09 02:33:29;;;;;;;233.77;82.70;;;1.40;99.90;;;;;;5022826;28;20048;-71
2023/04/09 02:35:55;;;;;;;231.15;80.35;;;1.40;99.90;;;;;;5036288;28;20035;-71
2023/04/09 02:38:23;;;;;;;235.10;84.63;;;1.40;99.90;;;;;;5002347;28;20121;-70
2023/04/09 02:40:50;;;;;;;227.45;83.05;;;1.40;99.90;;;;;;5038753;28;20289;-70
2023/04/09 02:43:16;;;;;;;218.43;82.38;;;1.30;99.90;;;;;;5017572;28;20047;-70
2023/04/09 02:45:43;;;;;;;249.20;85.40;;;1.20;99.90;;;;;;5040158;28;20507;-70
2023/04/09 02:48:10;;;;;;;283.08;93.63;;;1.40;99.90;;;;;;5036033;28;20049;-70
2023/04/09 02:50:36;;;;;;;269.38;91.20;;;1.50;99.90;;;;;;5022951;28;20065;-70
2023/04/09 02:53:03;;;;;;;234.85;85.00;;;1.40;99.90;;;;;;5025395;28;20363;-69
2023/04/09 02:55:30;;;;;;;247.70;85.05;;;1.40;99.90;;;;;;5019443;28;20424;-70
2023/04/09 02:57:56;;;;;;;224.50;80.93;;;1.40;99.90;;;;;;5004343;28;20076;-70
2023/04/09 03:00:23;;;;;;;268.40;89.80;;;1.40;99.90;;;;;;4991580;28;20527;-70
2023/04/09 03:02:50;;;;;;;254.68;88.72;;;1.50;99.90;;;;;;5017266;28;20048;-70
2023/04/09 03:05:17;;;;;;;249.95;84.93;;;1.60;99.90;;;;;;5024055;28;20048;-70
2023/04/09 03:07:44;;;;;;;238.63;85.10;;;1.30;99.90;;;;;;5035252;28;20277;-70
2023/04/09 03:10:11;;;;;;;274.40;95.15;;;1.30;99.90;;;;;;5046297;28;20049;-70
2023/04/09 03:12:37;;;;;;;275.83;90.65;;;1.50;99.90;;;;;;5023020;28;20461;-70
2023/04/09 03:15:05;;;;;;;269.65;92.93;;;1.50;99.90;;;;;;5000552;28;20531;-70
2023/04/09 03:17:31;;;;;;;246.70;86.22;;;1.50;99.90;;;;;;5019102;28;20044;-70
2023/04/09 03:19:58;;;;;;;257.20;89.38;;;1.30;99.90;;;;;;5020381;28;20277;-70
2023/04/09 03:22:38;;;;;;;271.05;88.72;;;1.40;99.90;;;;;;5016844;28;20087;-70
2023/04/09 03:25:28;;;;;;;235.85;84.57;;;1.30;99.90;;;;;;5022892;28;20471;-70
2023/04/09 03:27:55;;;;;;;269.73;87.65;;;1.30;99.90;;;;;;5003222;28;20520;-70
2023/04/09 03:30:31;;;;;;;282.10;93.75;;;1.40;99.90;;;;;;5022494;28;20045;-69
2023/04/09 03:33:00;;;;;;;254.02;89.65;;;1.30;99.90;;;;;;5004869;28;20045;-69
2023/04/09 03:35:29;;;;;;;264.80;91.70;;;1.20;99.90;;;;;;5015849;28;20052;-70
2023/04/09 03:37:58;;;;;;;223.20;82.53;;;1.30;99.90;;;;;;5008792;28;20048;-70
2023/04/09 03:40:25;;;;;;;237.00;86.68;;;1.10;99.90;;;;;;5009482;28;20063;-70
2023/04/09 03:42:51;;;;;;;237.20;89.43;;;1.10;99.90;;;;;;5017693;28;20052;-70
2023/04/09 03:45:18;;;;;;;268.63;92.18;;;1.00;99.90;;;;;;5016702;28;20053;-70
2023/04/09 03:47:47;;;;;;;327.25;101.60;;;1.10;99.90;;;;;;5005157;28;20043;-70
2023/04/09 03:50:16;;;;;;;300.40;98.90;;;1.10;99.90;;;;;;4991263;28;20471;-70
2023/04/09 03:52:49;;;;;;;277.38;93.10;;;1.20;99.90;;;;;;5020412;28;20324;-71
2023/04/09 03:55:17;;;;;;;297.23;98.93;;;1.10;99.90;;;;;;5019464;28;20796;-71
2023/04/09 03:57:44;;;;;;;358.33;107.97;;;1.20;99.90;;;;;;5020301;28;20064;-70
2023/04/09 04:00:15;;;;;;;288.08;96.82;;;1.20;99.90;;;;;;5014697;28;20519;-71
2023/04/09 04:02:59;;;;;;;248.65;90.43;;;1.00;99.90;;;;;;5008294;28;20041;-70
2023/04/09 04:05:46;;;;;;;368.25;106.43;;;0.90;99.90;;;;;;5006785;28;20108;-71
2023/04/09 04:08:15;;;;;;;307.58;101.47;;;1.00;99.90;;;;;;5009832;28;20396;-71
2023/04/09 04:10:42;;;;;;;235.00;83.68;;;0.90;99.90;;;;;;5015053;28;20065;-70
2023/04/09 04:13:10;;;;;;;222.90;80.78;;;0.80;99.90;;;;;;5007354;28;20060;-70
2023/04/09 04:15:46;;;;;;;202.32;74.20;;;0.60;99.90;;;;;;5010422;28;20037;-70
2023/04/09 04:18:14;;;;;;;223.80;80.68;;;0.40;99.90;;;;;;4993821;28;20535;-70
2023/04/09 04:20:47;;;;;;;249.57;86.32;;;0.40;99.90;;;;;;4996132;28;20284;-70
2023/04/09 04:23:14;;;;;;;265.45;91.65;;;0.50;99.90;;;;;;5031288;28;20053;-70
2023/04/09 04:26:10;;;;;;;244.07;88.00;;;0.50;99.90;;;;;;5002576;28;20922;-70
2023/04/09 04:28:39;;;;;;;276.80;92.90;;;0.50;99.90;;;;;;4999218;28;20140;-72
2023/04/09 04:31:11;;;;;;;242.07;85.45;;;0.70;99.90;;;;;;5015037;28;20041;-72
2023/04/09 04:33:41;;;;;;;257.67;91.10;;;0.70;99.90;;;;;;5009000;28;20531;-69
2023/04/09 04:36:12;;;;;;;299.45;99.85;;;0.90;99.90;;;;;;5013558;28;20128;-69
2023/04/09 04:38:50;;;;;;;282.52;94.85;;;0.70;99.90;;;;;;5012862;28;20045;-70
2023/04/09 04:41:25;;;;;;;260.42;92.25;;;0.70;99.90;;;;;;5014263;28;20049;-70
2023/04/09 04:44:04;;;;;;;247.93;89.20;;;0.70;99.90;;;;;;5012201;28;20118;-70
2023/04/09 04:46:31;;;;;;;265.25;91.82;;;0.80;99.90;;;;;;5030463;28;20128;-70
2023/04/09 04:48:58;;;;;;;293.80;96.65;;;0.70;99.90;;;;;;5014126;28;20037;-71
2023/04/09 04:51:26;;;;;;;265.27;88.60;;;0.60;99.90;;;;;;5015900;28;20042;-70
2023/04/09 04:54:01;;;;;;;225.02;87.25;;;0.70;99.90;;;;;;5007823;28;20463;-70
2023/04/09 04:56:29;;;;;;;247.68;86.28;;;0.60;99.90;;;;;;5012378;28;20094;-70
2023/04/09 04:59:08;;;;;;;258.20;91.03;;;0.60;99.90;;;;;;5012682;28;20048;-71
2023/04/09 05:01:53;;;;;;;250.82;85.88;;;0.80;99.90;;;;;;5010205;28;20120;-71
2023/04/09 05:04:20;;;;;;;221.48;83.22;;;0.70;99.90;;;;;;5034813;28;20080;-71
2023/04/09 05:06:47;;;;;;;236.55;90.60;;;0.60;99.90;;;;;;5019810;28;20091;-71
2023/04/09 05:09:18;;;;;;;256.08;88.60;;;0.60;99.90;;;;;;5014204;28;20052;-71
2023/04/09 05:11:57;;;;;;;244.77;86.60;;;0.70;99.90;;;;;;5011518;28;20262;-71
2023/04/09 05:14:25;;;;;;;222.88;80.45;;;0.50;99.90;;;;;;5009848;28;20041;-70
2023/04/09 05:16:52;;;;;;;222.48;78.82;;;0.30;99.90;;;;;;5013383;28;20045;-70
2023/04/09 05:19:23;;;;;;;221.05;81.50;;;0.30;99.90;;;;;;5015117;28;20049;-70
2023/04/09 05:21:56;;;;;;;216.88;78.97;;;0.20;99.90;;;;;;5016108;28;20462;-72
2023/04/09 05:24:23;;;;;;;227.13;85.57;;;0.30;99.90;;;;;;5020997;28;20137;-71
2023/04/09 05:26:50;;;;;;;232.10;88.82;;;0.30;99.90;;;;;;5015495;28;20574;-72
2023/04/09 05:29:16;;;;;;;231.10;88.03;;;0.50;99.90;;;;;;4999588;28;20057;-70
2023/04/09 05:31:43;;;;;;;214.15;79.32;;;0.60;99.90;;;;;;5016721;28;20079;-70
2023/04/09 05:34:19;;;;;;;240.70;85.43;;;0.70;99.90;;;;;;5034890;28;20522;-71
2023/04/09 05:36:50;;;;;;;227.32;84.88;;;0.70;99.90;;;;;;5016113;28;20533;-70
2023/04/09 05:39:18;;;;;;;218.05;85.55;;;0.70;99.90;;;;;;5004185;28;20093;-71
2023/04/09 05:41:45;;;;;;;198.02;78.70;;;0.70;99.90;;;;;;5016813;28;20033;-71
2023/04/09 05:44:29;;;;;;;230.05;86.22;;;0.80;99.90;;;;;;5003220;28;20120;-71
2023/04/09 05:47:05;;;;;;;220.13;81.60;;;0.80;99.90;;;;;;5017943;28;20035;-71
2023/04/09 05:49:43;;;;;;;203.73;82.45;;;0.80;99.90;;;;;;5011458;28;20400;-69
2023/04/09 05:52:15;;;;;;;252.90;89.68;;;1.00;99.90;;;;;;5337584;22;20060;-75
2023/04/09 05:54:42;;;;;;;258.75;91.88;;;1.00;99.90;;;;;;4979324;28;20046;-75
2023/04/09 05:57:10;;;;;;;260.58;89.72;;;1.10;99.90;;;;;;4969076;28;20132;-74
2023/04/09 05:59:40;;;;;;;231.50;87.82;;;1.30;99.90;;;;;;4970312;28;20041;-74
2023/04/09 06:02:07;;;;;;;244.48;92.57;;;1.40;99.90;;;;;;4979070;28;20073;-73
2023/04/09 06:04:34;;;;;;;236.57;89.63;;;1.40;99.90;;;;;;4987332;28;20050;-74
2023/04/09 06:07:01;;;;;;;227.85;91.57;;;1.60;99.90;;;;;;4965557;28;20053;-74
2023/04/09 06:09:28;;;;;;;237.85;91.75;;;1.80;99.90;;;;;;4952424;28;20478;-75
2023/04/09 06:11:56;;;;;;;251.65;87.75;;;1.80;99.90;;;;;;4982731;28;20687;-75
2023/04/09 06:14:23;;;;;;;216.00;87.85;;;1.80;99.90;;;;;;4983867;28;20050;-75
2023/04/09 06:16:50;;;;;;;185.32;79.97;;;1.90;99.90;;;;;;4958391;28;20045;-76
2023/04/09 06:19:17;;;;;;;208.35;83.25;;;2.00;99.90;;;;;;4975404;28;20132;-75
2023/04/09 06:21:44;;;;;;;233.60;92.78;;;2.10;99.90;;;;;;4979593;28;20335;-76
2023/04/09 06:24:11;;;;;;;206.30;81.10;;;2.20;99.90;;;;;;4967074;28;20148;-76
2023/04/09 06:26:37;;;;;;;207.57;84.13;;;2.30;99.90;;;;;;4975168;28;20177;-78
2023/04/09 06:29:04;;;;;;;190.93;79.88;;;2.50;99.90;;;;;;4968996;28;20046;-77
2023/04/09 06:31:31;;;;;;;192.82;79.95;;;2.50;99.90;;;;;;4968196;28;20053;-76
2023/04/09 06:33:58;;;;;;;175.63;78.80;;;2.70;99.90;;;;;;4974546;28;20042;-78
2023/04/09 06:36:26;;;;;;;184.85;79.65;;;2.90;99.90;;;;;;4975483;28;20486;-76
2023/04/09 06:38:53;;;;;;;199.95;85.00;;;3.10;99.90;;;;;;4987705;28;20526;-74
2023/04/09 06:41:21;;;;;;;171.30;76.80;;;3.30;99.90;;;;;;4971461;28;20050;-76
2023/04/09 06:43:48;;;;;;;192.15;84.00;;;3.50;99.90;;;;;;4978631;28;20125;-75
2023/04/09 06:46:18;;;;;;;157.32;76.80;;;3.60;99.90;;;;;;4974346;28;20046;-76
2023/04/09 06:48:45;;;;;;;167.82;77.95;;;3.80;99.90;;;;;;4977888;28;20046;-77
2023/04/09 06:51:13;;;;;;;159.80;80.00;;;4.10;99.90;;;;;;4968759;28;20061;-78
2023/04/09 06:53:40;;;;;;;155.05;76.35;;;4.30;99.90;;;;;;4988025;28;20053;-76
2023/04/09 06:56:07;;;;;;;151.98;76.63;;;4.40;99.90;;;;;;4966404;28;22118;-76
2023/04/09 06:58:35;;;;;;;140.60;74.53;;;4.60;99.90;;;;;;4971328;28;20081;-77
2023/04/09 07:01:02;;;;;;;144.77;72.25;;;4.80;99.90;;;;;;4973395;28;20129;-77
2023/04/09 07:03:28;;;;;;;140.65;71.20;;;4.90;99.90;;;;;;4986653;28;20041;-79
2023/04/09 07:05:56;;;;;;;138.60;72.75;;;5.10;99.90;;;;;;4984407;28;20045;-76
2023/04/09 07:08:23;;;;;;;125.68;69.53;;;5.40;99.90;;;;;;4969059;28;20121;-78
2023/04/09 07:10:50;;;;;;;133.55;71.53;;;5.70;99.90;;;;;;4970285;28;20125;-79
2023/04/09 07:13:17;;;;;;;104.68;55.88;;;6.20;99.90;;;;;;4980664;28;20042;-77
2023/04/09 07:15:44;;;;;;;88.18;48.08;;;6.50;99.90;;;;;;4962154;28;20042;-79
2023/04/09 07:18:11;;;;;;;88.72;47.03;;;6.70;99.90;;;;;;4976749;28;20042;-77
2023/04/09 07:20:38;;;;;;;68.40;42.22;;;6.90;99.90;;;;;;4978769;28;20042;-76
2023/04/09 07:23:05;;;;;;;73.68;45.28;;;7.10;99.90;;;;;;4979688;28;20050;-76
2023/04/09 07:25:32;;;;;;;68.55;47.42;;;7.30;99.90;;;;;;4987191;28;20103;-77
2023/04/09 07:27:59;;;;;;;63.00;43.72;;;7.50;99.90;;;;;;4966423;28;20108;-78
2023/04/09 07:30:26;;;;;;;68.00;46.10;;;7.60;99.90;;;;;;4966053;28;20065;-79
2023/04/09 07:32:53;;;;;;;64.00;47.55;;;7.70;99.90;;;;;;4975981;28;20518;-76
2023/04/09 07:35:20;;;;;;;70.20;49.17;;;7.80;99.90;;;;;;4978063;28;20042;-77
2023/04/09 07:37:47;;;;;;;64.03;47.53;;;7.90;99.90;;;;;;4969035;28;20081;-77
2023/04/09 07:40:14;;;;;;;61.38;49.22;;;8.30;99.90;;;;;;4965456;28;20046;-75
2023/04/09 07:42:41;;;;;;;68.57;53.33;;;8.70;99.90;;;;;;4971304;28;20042;-75
2023/04/09 07:45:08;;;;;;;73.95;57.75;;;8.70;99.90;;;;;;4973019;28;20520;-76
2023/04/09 07:47:36;;;;;;;56.90;50.80;;;8.60;99.90;;;;;;4978300;28;20774;-77
2023/04/09 07:50:04;;;;;;;56.40;50.47;;;8.50;99.90;;;;;;4981961;28;20052;-75
2023/04/09 07:52:31;;;;;;;79.75;62.72;;;8.60;99.90;;;;;;4990178;28;20558;-75
2023/04/09 07:54:57;;;;;;;57.72;51.88;;;8.70;99.90;;;;;;4967730;28;20443;-74
2023/04/09 07:57:25;;;;;;;62.83;56.08;;;8.90;99.90;;;;;;4970931;28;20454;-78
2023/04/09 07:59:52;;;;;;;62.63;56.47;;;9.20;99.90;;;;;;4973758;28;20569;-77
2023/04/09 08:02:20;;;;;;;65.50;58.88;;;9.30;99.90;;;;;;4970648;28;20038;-76
2023/04/09 08:04:47;;;;;;;63.50;57.25;;;9.50;99.90;;;;;;4975499;28;20338;-75
2023/04/09 08:07:14;;;;;;;65.97;59.30;;;9.40;99.90;;;;;;4976831;28;20045;-74
2023/04/09 08:09:40;;;;;;;62.88;56.67;;;9.50;99.90;;;;;;4975657;28;20042;-76
2023/04/09 08:12:07;;;;;;;53.25;47.88;;;9.50;99.90;;;;;;4971729;28;20038;-76
2023/04/09 08:14:34;;;;;;;56.35;51.10;;;9.40;99.90;;;;;;4953583;28;20136;-75
2023/04/09 08:17:02;;;;;;;55.75;49.97;;;9.40;99.90;;;;;;4984690;28;20073;-75
2023/04/09 08:19:29;;;;;;;60.95;55.00;;;9.50;99.90;;;;;;4968436;28;20501;-77
2023/04/09 08:21:57;;;;;;;63.45;57.60;;;9.70;99.90;;;;;;4986778;28;20037;-75
2023/04/09 08:24:24;;;;;;;63.75;57.78;;;10.30;99.90;;;;;;4969017;28;20331;-76
2023/04/09 08:26:51;;;;;;;60.45;54.95;;;10.80;99.90;;;;;;4981130;28;20866;-75
2023/04/09 08:29:18;;;;;;;60.90;55.72;;;10.70;99.90;;;;;;4976235;28;20511;-76
2023/04/09 08:31:44;;;;;;;60.20;55.05;;;10.50;99.90;;;;;;4974475;28;20046;-74
2023/04/09 08:34:14;;;;;;;60.90;55.50;;;10.00;99.90;;;;;;4959722;28;20119;-75
2023/04/09 08:36:44;;;;;;;55.70;50.65;;;9.40;99.90;;;;;;4968890;28;20041;-74
2023/04/09 08:39:11;;;;;;;59.33;53.72;;;9.50;99.90;;;;;;4981904;28;20550;-76
2023/04/09 08:41:44;;;;;;;56.88;51.70;;;9.70;99.90;;;;;;4973572;28;20049;-77
2023/04/09 08:44:11;;;;;;;57.28;52.03;;;9.80;99.90;;;;;;4975072;28;20265;-74
2023/04/09 08:46:38;;;;;;;58.13;52.88;;;9.90;99.90;;;;;;4974932;28;20235;-74
2023/04/09 08:49:07;;;;;;;58.10;52.58;;;10.00;99.90;;;;;;4973729;28;20041;-73
2023/04/09 08:51:33;;;;;;;55.80;50.85;;;10.30;99.90;;;;;;4979404;28;20474;-74
2023/04/09 08:54:01;;;;;;;55.50;50.65;;;10.30;99.90;;;;;;4985780;28;20117;-73
2023/04/09 08:56:30;;;;;;;57.63;52.63;;;10.80;99.90;;;;;;4969580;28;20554;-75
2023/04/09 08:58:58;;;;;;;55.17;50.40;;;11.00;99.90;;;;;;4971490;28;20030;-75
2023/04/09 09:01:27;;;;;;;57.08;52.03;;;10.80;99.90;;;;;;4981728;28;20038;-75
2023/04/09 09:04:05;;;;;;;55.15;50.50;;;11.00;99.90;;;;;;4984362;28;20458;-73
2023/04/09 09:06:39;;;;;;;56.70;51.33;;;11.00;99.90;;;;;;4977758;28;20318;-76
2023/04/09 09:09:07;;;;;;;47.22;43.17;;;10.80;99.90;;;;;;4976955;28;20060;-77
2023/04/09 09:11:44;;;;;;;49.63;45.05;;;10.60;99.90;;;;;;4975860;28;20720;-74
2023/04/09 09:14:15;;;;;;;49.95;45.40;;;10.50;99.90;;;;;;4983224;28;20050;-73
2023/04/09 09:17:02;;;;;;;45.63;41.53;;;11.00;99.90;;;;;;4968591;28;20123;-74
2023/04/09 09:19:35;;;;;;;48.72;44.03;;;10.80;99.90;;;;;;4987950;28;20545;-74
2023/04/09 09:22:03;;;;;;;48.28;43.78;;;10.90;99.90;;;;;;4979198;28;20534;-73
2023/04/09 09:24:33;;;;;;;50.03;45.33;;;11.20;99.90;;;;;;4971194;28;20072;-75
2023/04/09 09:27:01;;;;;;;47.95;43.65;;;11.20;99.90;;;;;;4965464;28;20531;-77
2023/04/09 09:29:28;;;;;;;51.95;46.85;;;11.00;99.90;;;;;;4970695;28;20471;-75
2023/04/09 09:31:55;;;;;;;47.30;42.97;;;10.90;99.90;;;;;;4988185;28;20064;-74
2023/04/09 09:34:24;;;;;;;55.40;50.70;;;11.00;99.90;;;;;;4963354;28;22239;-76
2023/04/09 09:36:51;;;;;;;61.88;56.00;;;11.30;99.90;;;;;;4971345;28;20345;-76
2023/04/09 09:39:18;;;;;;;67.30;60.20;;;11.60;99.90;;;;;;4972186;28;20046;-75
2023/04/09 09:41:45;;;;;;;55.47;51.15;;;11.80;99.90;;;;;;4967274;28;20569;-74
2023/04/09 09:44:30;;;;;;;54.05;49.65;;;11.50;99.90;;;;;;4968629;28;20046;-76
2023/04/09 09:46:58;;;;;;;53.53;49.60;;;11.60;99.90;;;;;;4981645;28;20077;-74
2023/04/09 09:49:25;;;;;;;52.55;48.60;;;11.70;99.90;;;;;;4964587;28;20162;-78
2023/04/09 09:51:55;;;;;;;55.38;50.88;;;11.70;99.90;;;;;;4982373;28;20049;-75
2023/04/09 09:54:24;;;;;;;51.83;47.67;;;11.80;99.90;;;;;;4966997;28;20074;-76
2023/04/09 09:56:54;;;;;;;54.03;49.72;;;11.70;99.90;;;;;;4972944;28;20070;-76
2023/04/09 09:59:25;;;;;;;49.85;46.08;;;12.00;99.90;;;;;;4967112;28;20351;-75
2023/04/09 10:02:00;;;;;;;48.00;44.40;;;11.80;99.90;;;;;;4952561;28;20050;-75
2023/04/09 10:04:28;;;;;;;45.63;42.22;;;11.50;99.90;;;;;;4980998;28;20664;-73
2023/04/09 10:06:56;;;;;;;47.65;43.45;;;11.30;99.90;;;;;;4989053;28;20554;-73
2023/04/09 10:09:26;;;;;;;44.40;40.90;;;11.00;99.90;;;;;;4963623;28;20042;-74
2023/04/09 10:11:55;;;;;;;46.38;42.55;;;10.80;99.90;;;;;;4984773;28;20069;-74
2023/04/09 10:14:23;;;;;;;49.30;45.17;;;10.70;99.90;;;;;;4962434;28;20105;-76
2023/04/09 10:16:50;;;;;;;51.95;47.55;;;10.60;99.90;;;;;;4986911;28;20038;-74
2023/04/09 10:19:17;;;;;;;48.60;44.40;;;10.80;99.90;;;;;;4960341;28;20054;-75
2023/04/09 10:22:09;;;;;;;47.70;43.90;;;11.20;99.90;;;;;;4971847;28;20251;-72
2023/04/09 10:24:36;;;;;;;49.22;45.30;;;11.30;99.90;;;;;;4978180;28;20061;-73
2023/04/09 10:27:15;;;;;;;60.88;54.78;;;11.00;99.90;;;;;;4981508;28;20521;-74
2023/04/09 10:29:48;;;;;;;55.70;51.10;;;10.80;99.90;;;;;;4984268;28;20049;-76
2023/04/09 10:32:25;;;;;;;50.50;46.17;;;10.90;99.90;;;;;;4982745;28;20050;-74
2023/04/09 10:34:56;;;;;;;53.50;49.03;;;10.90;99.90;;;;;;4973081;28;20721;-75
2023/04/09 10:37:24;;;;;;;52.45;47.92;;;10.90;99.90;;;;;;4962679;28;20046;-76
2023/04/09 10:39:52;;;;;;;50.78;46.53;;;10.90;99.90;;;;;;4987536;28;20129;-76
2023/04/09 10:42:31;;;;;;;51.75;47.55;;;10.90;99.90;;;;;;4968178;28;20522;-76
2023/04/09 10:45:05;;;;;;;52.83;48.53;;;10.60;99.90;;;;;;4984047;28;20038;-76
2023/04/09 10:47:34;;;;;;;54.92;49.85;;;10.40;99.90;;;;;;4964777;28;20100;-74
2023/04/09 10:50:15;;;;;;;52.83;48.42;;;10.30;99.90;;;;;;4980347;28;20453;-75
2023/04/09 10:52:43;;;;;;;53.38;48.92;;;10.20;99.90;;;;;;4971870;28;20995;-73
2023/04/09 10:55:30;;;;;;;53.00;48.45;;;10.30;99.90;;;;;;4961150;28;20496;-77
2023/04/09 10:57:57;;;;;;;50.80;46.40;;;10.60;99.90;;;;;;4964517;28;20475;-74
2023/04/09 11:00:24;;;;;;;50.17;46.08;;;10.70;99.90;;;;;;4976408;28;20108;-74
2023/04/09 11:03:31;;;;;;;49.88;45.88;;;10.80;99.90;;;;;;4985934;28;20462;-76
2023/04/09 11:06:10;;;;;;;50.33;46.30;;;10.90;99.90;;;;;;4980478;28;20557;-76
2023/04/09 11:08:37;;;;;;;50.17;46.17;;;11.00;99.90;;;;;;4966080;28;20140;-73
2023/04/09 11:11:04;;;;;;;52.65;48.35;;;11.10;99.90;;;;;;4981602;28;20108;-76
2023/04/09 11:13:31;;;;;;;51.88;47.88;;;11.40;99.90;;;;;;4962260;28;20053;-73
2023/04/09 11:16:00;;;;;;;51.72;47.28;;;11.40;99.90;;;;;;4972736;28;20057;-75
2023/04/09 11:18:29;;;;;;;52.25;47.97;;;11.30;99.90;;;;;;4959533;28;20136;-75
2023/04/09 11:21:02;;;;;;;55.97;51.47;;;11.50;99.90;;;;;;4977748;28;20531;-74
2023/04/09 11:23:29;;;;;;;53.50;49.40;;;11.50;99.90;;;;;;4979579;28;20054;-74
2023/04/09 11:25:56;;;;;;;57.78;53.40;;;11.40;99.90;;;;;;4973174;28;20045;-76
2023/04/09 11:28:23;;;;;;;53.63;49.72;;;11.40;99.90;;;;;;4962565;28;20404;-76
2023/04/09 11:30:51;;;;;;;57.08;52.42;;;11.70;99.90;;;;;;4963285;28;20045;-77
2023/04/09 11:33:18;;;;;;;54.72;50.33;;;12.10;99.90;;;;;;4982012;28;20068;-76
2023/04/09 11:35:46;;;;;;;52.58;48.33;;;12.10;99.90;;;;;;4970426;28;20042;-77
2023/04/09 11:38:13;;;;;;;51.97;48.10;;;12.10;99.90;;;;;;4985503;28;20069;-77
2023/04/09 11:40:47;;;;;;;52.50;48.40;;;12.30;99.90;;;;;;4993658;28;20069;-76
2023/04/09 11:43:16;;;;;;;51.75;47.85;;;12.20;99.90;;;;;;4982835;28;20794;-75
2023/04/09 11:45:46;;;;;;;53.17;48.78;;;12.30;99.90;;;;;;4965782;28;20124;-76
2023/04/09 11:48:16;;;;;;;54.35;49.85;;;12.10;99.90;;;;;;4979559;28;20181;-73
2023/04/09 11:50:44;;;;;;;52.15;47.75;;;12.00;99.90;;;;;;4966840;28;20050;-75
2023/04/09 11:53:15;;;;;;;51.72;47.72;;;11.30;99.90;;;;;;5019222;22;20052;-77
2023/04/09 11:55:45;;;;;;;52.78;48.35;;;11.50;99.90;;;;;;5038375;28;20674;-76
2023/04/09 11:58:12;;;;;;;52.67;48.10;;;11.60;99.90;;;;;;5028768;28;20055;-75
2023/04/09 12:00:41;;;;;;;50.58;46.50;;;11.70;99.90;;;;;;5038996;28;20057;-75
2023/04/09 12:03:09;;;;;;;54.05;49.55;;;11.70;99.90;;;;;;5028216;28;20445;-73
2023/04/09 12:05:36;;;;;;;52.97;48.30;;;11.90;99.90;;;;;;5035054;28;20045;-74
2023/04/09 12:08:07;;;;;;;62.22;56.83;;;11.80;99.90;;;;;;5014240;28;20050;-76
2023/04/09 12:10:37;;;;;;;55.45;50.25;;;11.50;99.90;;;;;;5015203;28;20132;-74
2023/04/09 12:13:12;;;;;;;55.60;50.72;;;11.30;99.90;;;;;;5022928;28;20593;-76
2023/04/09 12:15:42;;;;;;;54.10;49.05;;;11.50;99.90;;;;;;5025445;28;20044;-75
2023/04/09 12:18:11;;;;;;;48.55;44.25;;;11.40;99.90;;;;;;5042351;28;20080;-75
2023/04/09 12:20:43;;;;;;;53.83;49.15;;;11.60;99.90;;;;;;5052813;28;20058;-76
2023/04/09 12:23:10;;;;;;;54.15;49.53;;;11.70;99.90;;;;;;5043325;28;20440;-75
2023/04/09 12:25:40;;;;;;;51.65;47.42;;;11.80;99.90;;;;;;5032466;28;20048;-76
2023/04/09 12:28:09;;;;;;;50.15;46.15;;;11.80;99.90;;;;;;5055734;28;20721;-75
2023/04/09 12:30:37;;;;;;;51.58;47.58;;;11.80;99.90;;;;;;5062171;28;20051;-74
2023/04/09 12:33:04;;;;;;;53.40;49.28;;;11.60;99.90;;;;;;5029466;28;20051;-76
2023/04/09 12:35:31;;;;;;;51.90;47.60;;;11.50;99.90;;;;;;5038814;28;20245;-75
2023/04/09 12:38:00;;;;;;;52.17;47.70;;;11.50;99.90;;;;;;5040014;28;20056;-75
2023/04/09 12:40:27;;;;;;;52.08;47.75;;;11.60;99.90;;;;;;5039828;28;20080;-75
2023/04/09 12:42:54;;;;;;;51.15;46.85;;;11.50;99.90;;;;;;5052689;28;20032;-75